sensor_id;sensor_type;location;lat;lon;timestamp;pressure;altitude;pressure_sealevel;temperature;humidity
13422;BME280;6782;55.904;13.396;2023-09-18T00:00:18;101366.16;;;16.83;100.00
13422;BME280;6782;55.904;13.396;2023-09-18T00:03:21;101359.25;;;16.78;100.00
13422;BME280;6782;55.904;13.396;2023-09-18T00:09:44;101349.00;;;16.90;100.00
13422;BME280;6782;55.904;13.396;2023-09-18T00:12:31;101333.13;;;16.87;100.00
13422;BME280;6782;55.904;13.396;2023-09-18T00:15:36;101324.09;;;16.92;100.00
13422;BME280;6782;55.904;13.396;2023-09-18T00:18:27;101311.56;;;16.94;100.00
13422;BME280;6782;55.904;13.396;2023-09-18T00:21:29;101310.88;;;16.88;100.00
13422;BME280;6782;55.904;13.396;2023-09-18T00:24:21;101313.44;;;16.92;100.00
13422;BME280;6782;55.904;13.396;2023-09-18T00:27:18;101302.66;;;16.95;100.00
13422;BME280;6782;55.904;13.396;2023-09-18T00:30:07;101290.13;;;16.97;100.00
13422;BME280;6782;55.904;13.396;2023-09-18T00:32:56;101274.03;;;17.00;100.00
13422;BME280;6782;55.904;13.396;2023-09-18T00:35:58;101267.88;;;16.98;100.00
13422;BME280;6782;55.904;13.396;2023-09-18T00:39:01;101259.75;;;17.01;100.00
13422;BME280;6782;55.904;13.396;2023-09-18T00:42:03;101257.75;;;17.06;100.00
13422;BME280;6782;55.904;13.396;2023-09-18T00:48:42;101241.53;;;17.12;100.00
13422;BME280;6782;55.904;13.396;2023-09-18T00:51:30;101227.28;;;17.13;100.00
13422;BME280;6782;55.904;13.396;2023-09-18T00:54:34;101227.28;;;17.13;100.00
13422;BME280;6782;55.904;13.396;2023-09-18T00:57:37;101226.19;;;17.17;100.00
13422;BME280;6782;55.904;13.396;2023-09-18T01:00:39;101218.13;;;17.18;100.00
13422;BME280;6782;55.904;13.396;2023-09-18T01:03:59;101209.41;;;17.15;100.00
13422;BME280;6782;55.904;13.396;2023-09-18T01:06:47;101194.34;;;17.14;100.00
13422;BME280;6782;55.904;13.396;2023-09-18T01:09:44;101185.09;;;17.22;100.00
13422;BME280;6782;55.904;13.396;2023-09-18T01:12:39;101178.75;;;17.25;100.00
13422;BME280;6782;55.904;13.396;2023-09-18T01:15:35;101157.56;;;17.22;100.00
13422;BME280;6782;55.904;13.396;2023-09-18T01:18:27;101164.75;;;17.20;100.00
13422;BME280;6782;55.904;13.396;2023-09-18T01:21:22;101158.44;;;17.22;100.00
13422;BME280;6782;55.904;13.396;2023-09-18T01:24:17;101152.09;;;17.25;100.00
13422;BME280;6782;55.904;13.396;2023-09-18T01:27:08;101154.75;;;17.25;100.00
13422;BME280;6782;55.904;13.396;2023-09-18T01:29:56;101139.56;;;17.27;100.00
13422;BME280;6782;55.904;13.396;2023-09-18T01:32:46;101144.81;;;17.28;100.00
13422;BME280;6782;55.904;13.396;2023-09-18T01:35:34;101142.88;;;17.32;100.00
13422;BME280;6782;55.904;13.396;2023-09-18T01:38:25;101136.75;;;17.30;100.00
13422;BME280;6782;55.904;13.396;2023-09-18T01:41:35;101155.88;;;17.39;100.00
13422;BME280;6782;55.904;13.396;2023-09-18T01:44:24;101166.78;;;17.33;100.00
13422;BME280;6782;55.904;13.396;2023-09-18T01:47:18;101169.41;;;17.35;100.00
13422;BME280;6782;55.904;13.396;2023-09-18T01:50:09;101163.94;;;17.38;100.00
13422;BME280;6782;55.904;13.396;2023-09-18T01:53:12;101160.31;;;17.39;100.00
13422;BME280;6782;55.904;13.396;2023-09-18T01:56:14;101160.06;;;17.45;100.00
13422;BME280;6782;55.904;13.396;2023-09-18T01:59:25;101160.19;;;17.42;100.00
13422;BME280;6782;55.904;13.396;2023-09-18T02:02:22;101171.38;;;17.50;100.00
13422;BME280;6782;55.904;13.396;2023-09-18T02:05:09;101180.16;;;17.54;100.00
13422;BME280;6782;55.904;13.396;2023-09-18T02:08:05;101161.72;;;17.47;100.00
13422;BME280;6782;55.904;13.396;2023-09-18T02:11:07;101135.78;;;17.51;100.00
13422;BME280;6782;55.904;13.396;2023-09-18T02:14:09;101122.19;;;17.57;100.00
13422;BME280;6782;55.904;13.396;2023-09-18T02:16:58;101110.91;;;17.50;100.00
13422;BME280;6782;55.904;13.396;2023-09-18T02:19:59;101102.84;;;17.52;100.00
13422;BME280;6782;55.904;13.396;2023-09-18T02:22:52;101091.38;;;17.50;100.00
13422;BME280;6782;55.904;13.396;2023-09-18T02:25:58;101098.47;;;17.51;100.00
13422;BME280;6782;55.904;13.396;2023-09-18T02:29:06;101121.41;;;17.55;100.00
13422;BME280;6782;55.904;13.396;2023-09-18T02:35:36;101134.59;;;17.58;100.00
13422;BME280;6782;55.904;13.396;2023-09-18T02:38:29;101137.94;;;17.63;100.00
13422;BME280;6782;55.904;13.396;2023-09-18T02:41:37;101138.72;;;17.65;100.00
13422;BME280;6782;55.904;13.396;2023-09-18T02:44:42;101121.78;;;17.66;100.00
13422;BME280;6782;55.904;13.396;2023-09-18T02:48:24;101125.25;;;17.68;100.00
13422;BME280;6782;55.904;13.396;2023-09-18T02:51:19;101116.59;;;17.63;100.00
13422;BME280;6782;55.904;13.396;2023-09-18T02:54:17;101132.59;;;17.63;100.00
13422;BME280;6782;55.904;13.396;2023-09-18T02:57:22;101130.56;;;17.68;100.00
13422;BME280;6782;55.904;13.396;2023-09-18T03:00:27;101130.56;;;17.68;100.00
13422;BME280;6782;55.904;13.396;2023-09-18T03:03:28;101123.50;;;17.67;100.00
13422;BME280;6782;55.904;13.396;2023-09-18T03:06:46;101126.69;;;17.75;100.00
13422;BME280;6782;55.904;13.396;2023-09-18T03:09:34;101128.56;;;17.73;100.00
13422;BME280;6782;55.904;13.396;2023-09-18T03:12:31;101125.25;;;17.68;100.00
13422;BME280;6782;55.904;13.396;2023-09-18T03:15:33;101127.78;;;17.71;100.00
13422;BME280;6782;55.904;13.396;2023-09-18T03:18:21;101121.47;;;17.72;100.00
13422;BME280;6782;55.904;13.396;2023-09-18T03:21:22;101115.13;;;17.75;100.00
13422;BME280;6782;55.904;13.396;2023-09-18T03:24:13;101113.56;;;17.71;100.00
13422;BME280;6782;55.904;13.396;2023-09-18T03:27:15;101117.09;;;17.71;100.00
13422;BME280;6782;55.904;13.396;2023-09-18T03:30:03;101126.69;;;17.75;100.00
13422;BME280;6782;55.904;13.396;2023-09-18T03:33:06;101125.09;;;17.71;100.00
13422;BME280;6782;55.904;13.396;2023-09-18T03:35:59;101128.69;;;17.70;100.00
13422;BME280;6782;55.904;13.396;2023-09-18T03:38:51;101126.97;;;17.69;100.00
13422;BME280;6782;55.904;13.396;2023-09-18T03:41:57;101118.81;;;17.72;100.00
13422;BME280;6782;55.904;13.396;2023-09-18T03:44:45;101103.91;;;17.68;100.00
13422;BME280;6782;55.904;13.396;2023-09-18T03:47:46;101108.06;;;17.55;100.00
13422;BME280;6782;55.904;13.396;2023-09-18T03:50:35;101094.63;;;17.38;100.00
13422;BME280;6782;55.904;13.396;2023-09-18T03:53:24;101117.97;;;17.33;100.00
13422;BME280;6782;55.904;13.396;2023-09-18T03:56:12;101121.56;;;17.32;100.00
13422;BME280;6782;55.904;13.396;2023-09-18T03:59:05;101136.81;;;17.28;100.00
13422;BME280;6782;55.904;13.396;2023-09-18T04:01:53;101166.47;;;17.21;100.00
13422;BME280;6782;55.904;13.396;2023-09-18T04:04:42;101172.88;;;17.17;100.00
13422;BME280;6782;55.904;13.396;2023-09-18T04:07:47;101198.28;;;17.25;100.00
13422;BME280;6782;55.904;13.396;2023-09-18T04:10:42;101203.78;;;17.21;100.00
13422;BME280;6782;55.904;13.396;2023-09-18T04:13:35;101205.41;;;17.25;100.00
13422;BME280;6782;55.904;13.396;2023-09-18T04:16:36;101205.66;;;17.19;100.00
13422;BME280;6782;55.904;13.396;2023-09-18T04:19:28;101212.63;;;17.23;100.00
13422;BME280;6782;55.904;13.396;2023-09-18T04:22:19;101232.94;;;17.25;100.00
13422;BME280;6782;55.904;13.396;2023-09-18T04:25:07;101237.66;;;17.19;100.00
13422;BME280;6782;55.904;13.396;2023-09-18T04:27:55;101240.13;;;17.23;100.00
13422;BME280;6782;55.904;13.396;2023-09-18T04:30:43;101255.28;;;17.23;100.00
13422;BME280;6782;55.904;13.396;2023-09-18T04:33:33;101263.09;;;17.26;100.00
13422;BME280;6782;55.904;13.396;2023-09-18T04:36:22;101267.53;;;17.27;100.00
13422;BME280;6782;55.904;13.396;2023-09-18T04:39:12;101278.19;;;17.27;100.00
13422;BME280;6782;55.904;13.396;2023-09-18T04:42:01;101267.66;;;17.24;100.00
13422;BME280;6782;55.904;13.396;2023-09-18T04:44:53;101279.94;;;17.28;100.00
13422;BME280;6782;55.904;13.396;2023-09-18T04:48:05;101282.44;;;17.31;100.00
13422;BME280;6782;55.904;13.396;2023-09-18T04:50:55;101283.41;;;17.30;100.00
13422;BME280;6782;55.904;13.396;2023-09-18T04:53:49;101291.44;;;17.28;100.00
13422;BME280;6782;55.904;13.396;2023-09-18T04:57:13;101284.13;;;17.33;100.00
13422;BME280;6782;55.904;13.396;2023-09-18T05:00:01;101287.53;;;17.37;100.00
13422;BME280;6782;55.904;13.396;2023-09-18T05:02:49;101300.09;;;17.33;100.00
13422;BME280;6782;55.904;13.396;2023-09-18T05:05:36;101304.59;;;17.33;100.00
13422;BME280;6782;55.904;13.396;2023-09-18T05:08:25;101300.94;;;17.35;100.00
13422;BME280;6782;55.904;13.396;2023-09-18T05:11:12;101309.66;;;17.39;100.00
13422;BME280;6782;55.904;13.396;2023-09-18T05:14:00;101315.81;;;17.41;100.00
13422;BME280;6782;55.904;13.396;2023-09-18T05:16:48;101314.88;;;17.42;100.00
13422;BME280;6782;55.904;13.396;2023-09-18T05:19:50;101298.75;;;17.45;100.00
13422;BME280;6782;55.904;13.396;2023-09-18T05:22:39;101311.28;;;17.43;100.00
13422;BME280;6782;55.904;13.396;2023-09-18T05:25:29;101317.47;;;17.43;100.00
13422;BME280;6782;55.904;13.396;2023-09-18T05:28:18;101322.06;;;17.40;100.00
13422;BME280;6782;55.904;13.396;2023-09-18T05:31:06;101310.47;;;17.41;100.00
13422;BME280;6782;55.904;13.396;2023-09-18T05:33:58;101311.88;;;17.49;100.00
13422;BME280;6782;55.904;13.396;2023-09-18T05:36:46;101305.28;;;17.38;100.00
13422;BME280;6782;55.904;13.396;2023-09-18T05:39:34;101321.94;;;17.43;100.00
13422;BME280;6782;55.904;13.396;2023-09-18T05:42:23;101319.19;;;17.44;100.00
13422;BME280;6782;55.904;13.396;2023-09-18T05:45:11;101321.81;;;17.46;100.00
13422;BME280;6782;55.904;13.396;2023-09-18T05:47:59;101324.31;;;17.49;100.00
13422;BME280;6782;55.904;13.396;2023-09-18T05:50:49;101325.00;;;17.56;100.00
13422;BME280;6782;55.904;13.396;2023-09-18T05:53:38;101328.75;;;17.50;100.00
13422;BME280;6782;55.904;13.396;2023-09-18T05:56:26;101321.53;;;17.52;100.00
13422;BME280;6782;55.904;13.396;2023-09-18T05:59:14;101324.00;;;17.58;100.00
13422;BME280;6782;55.904;13.396;2023-09-18T06:02:05;101321.31;;;17.58;100.00
13422;BME280;6782;55.904;13.396;2023-09-18T06:04:54;101304.19;;;17.64;100.00
13422;BME280;6782;55.904;13.396;2023-09-18T06:07:45;101302.66;;;17.58;100.00
13422;BME280;6782;55.904;13.396;2023-09-18T06:10:34;101297.97;;;17.63;100.00
13422;BME280;6782;55.904;13.396;2023-09-18T06:13:24;101297.97;;;17.63;100.00
13422;BME280;6782;55.904;13.396;2023-09-18T06:16:14;101284.69;;;17.62;100.00
13422;BME280;6782;55.904;13.396;2023-09-18T06:19:02;101291.69;;;17.64;100.00
13422;BME280;6782;55.904;13.396;2023-09-18T06:21:50;101290.63;;;17.68;100.00
13422;BME280;6782;55.904;13.396;2023-09-18T06:24:38;101283.63;;;17.66;100.00
13422;BME280;6782;55.904;13.396;2023-09-18T06:27:25;101297.44;;;17.75;100.00
13422;BME280;6782;55.904;13.396;2023-09-18T06:30:13;101297.44;;;17.75;100.00
13422;BME280;6782;55.904;13.396;2023-09-18T06:33:03;101294.75;;;17.75;100.00
13422;BME280;6782;55.904;13.396;2023-09-18T06:35:50;101298.88;;;17.82;100.00
13422;BME280;6782;55.904;13.396;2023-09-18T06:38:40;101283.03;;;17.79;100.00
13422;BME280;6782;55.904;13.396;2023-09-18T06:41:28;101288.06;;;17.85;100.00
13422;BME280;6782;55.904;13.396;2023-09-18T06:44:16;101293.50;;;17.84;100.00
13422;BME280;6782;55.904;13.396;2023-09-18T06:47:03;101300.22;;;17.92;100.00
13422;BME280;6782;55.904;13.396;2023-09-18T06:49:52;101297.34;;;17.97;100.00
13422;BME280;6782;55.904;13.396;2023-09-18T06:52:43;101294.34;;;18.04;100.00
13422;BME280;6782;55.904;13.396;2023-09-18T06:55:31;101281.78;;;18.06;100.00
13422;BME280;6782;55.904;13.396;2023-09-18T06:58:19;101273.13;;;18.01;100.00
13422;BME280;6782;55.904;13.396;2023-09-18T07:01:06;101276.19;;;18.12;100.00
13422;BME280;6782;55.904;13.396;2023-09-18T07:03:55;101281.22;;;18.19;100.00
13422;BME280;6782;55.904;13.396;2023-09-18T07:06:44;101273.34;;;18.15;100.00
13422;BME280;6782;55.904;13.396;2023-09-18T07:09:34;101284.53;;;18.24;100.00
13422;BME280;6782;55.904;13.396;2023-09-18T07:12:26;101268.69;;;18.21;100.00
13422;BME280;6782;55.904;13.396;2023-09-18T07:15:14;101261.59;;;18.20;100.00
13422;BME280;6782;55.904;13.396;2023-09-18T07:18:01;101257.84;;;18.24;100.00
13422;BME280;6782;55.904;13.396;2023-09-18T07:20:48;101261.00;;;18.32;100.00
13422;BME280;6782;55.904;13.396;2023-09-18T07:23:39;101255.66;;;18.32;100.00
13422;BME280;6782;55.904;13.396;2023-09-18T07:26:30;101253.97;;;18.31;100.00
13422;BME280;6782;55.904;13.396;2023-09-18T07:29:40;101246.78;;;18.51;100.00
13422;BME280;6782;55.904;13.396;2023-09-18T07:32:52;101244.28;;;18.47;100.00
13422;BME280;6782;55.904;13.396;2023-09-18T07:35:44;101244.16;;;18.50;100.00
13422;BME280;6782;55.904;13.396;2023-09-18T07:38:36;101251.09;;;18.54;100.00
13422;BME280;6782;55.904;13.396;2023-09-18T07:41:57;101232.06;;;18.60;100.00
13422;BME280;6782;55.904;13.396;2023-09-18T07:44:47;101236.19;;;18.67;100.00
13422;BME280;6782;55.904;13.396;2023-09-18T07:47:51;101224.06;;;18.60;100.00
13422;BME280;6782;55.904;13.396;2023-09-18T07:50:52;101222.63;;;18.71;100.00
13422;BME280;6782;55.904;13.396;2023-09-18T07:53:53;101209.63;;;18.64;100.00
13422;BME280;6782;55.904;13.396;2023-09-18T07:57:22;101213.25;;;18.80;100.00
13422;BME280;6782;55.904;13.396;2023-09-18T08:00:11;101202.06;;;18.72;100.00
13422;BME280;6782;55.904;13.396;2023-09-18T08:03:12;101197.06;;;18.83;100.00
13422;BME280;6782;55.904;13.396;2023-09-18T08:06:15;101181.81;;;18.85;100.00
13422;BME280;6782;55.904;13.396;2023-09-18T08:09:17;101174.13;;;18.96;100.00
13422;BME280;6782;55.904;13.396;2023-09-18T08:12:24;101171.06;;;19.04;100.00
13422;BME280;6782;55.904;13.396;2023-09-18T08:15:13;101166.59;;;19.04;100.00
13422;BME280;6782;55.904;13.396;2023-09-18T08:18:17;101165.56;;;19.07;100.00
13422;BME280;6782;55.904;13.396;2023-09-18T08:21:04;101163.09;;;19.19;100.00
13422;BME280;6782;55.904;13.396;2023-09-18T08:23:51;101168.22;;;19.24;100.00
13422;BME280;6782;55.904;13.396;2023-09-18T08:26:39;101166.66;;;19.37;100.00
13422;BME280;6782;55.904;13.396;2023-09-18T08:29:28;101155.53;;;19.45;100.00
13422;BME280;6782;55.904;13.396;2023-09-18T08:32:15;101157.84;;;19.68;100.00
13422;BME280;6782;55.904;13.396;2023-09-18T08:35:05;101140.41;;;19.61;100.00
13422;BME280;6782;55.904;13.396;2023-09-18T08:37:53;101133.88;;;19.82;100.00
13422;BME280;6782;55.904;13.396;2023-09-18T08:40:41;101119.38;;;19.86;100.00
13422;BME280;6782;55.904;13.396;2023-09-18T08:43:31;101092.75;;;19.83;100.00
13422;BME280;6782;55.904;13.396;2023-09-18T08:46:21;101076.09;;;19.93;100.00
13422;BME280;6782;55.904;13.396;2023-09-18T08:49:10;101043.38;;;20.04;100.00
13422;BME280;6782;55.904;13.396;2023-09-18T08:51:59;101031.47;;;19.94;100.00
13422;BME280;6782;55.904;13.396;2023-09-18T08:54:49;101010.03;;;19.94;100.00
13422;BME280;6782;55.904;13.396;2023-09-18T08:57:38;101005.34;;;20.13;100.00
13422;BME280;6782;55.904;13.396;2023-09-18T09:00:26;100987.00;;;20.21;100.00
13422;BME280;6782;55.904;13.396;2023-09-18T09:03:16;100961.41;;;20.31;100.00
13422;BME280;6782;55.904;13.396;2023-09-18T09:06:04;100935.50;;;20.32;100.00
13422;BME280;6782;55.904;13.396;2023-09-18T09:08:53;100903.97;;;20.21;100.00
13422;BME280;6782;55.904;13.396;2023-09-18T09:11:48;100890.84;;;20.46;100.00
13422;BME280;6782;55.904;13.396;2023-09-18T09:14:35;100867.09;;;20.54;100.00
13422;BME280;6782;55.904;13.396;2023-09-18T09:17:24;100843.34;;;20.63;100.00
13422;BME280;6782;55.904;13.396;2023-09-18T09:20:15;100816.28;;;20.53;100.00
13422;BME280;6782;55.904;13.396;2023-09-18T09:23:05;100775.44;;;20.35;100.00
13422;BME280;6782;55.904;13.396;2023-09-18T09:25:53;100765.00;;;20.59;100.00
13422;BME280;6782;55.904;13.396;2023-09-18T09:28:40;100746.28;;;20.72;100.00
13422;BME280;6782;55.904;13.396;2023-09-18T09:31:29;100733.09;;;20.95;100.00
13422;BME280;6782;55.904;13.396;2023-09-18T09:34:24;100706.53;;;21.05;100.00
13422;BME280;6782;55.904;13.396;2023-09-18T09:37:15;100676.56;;;21.25;100.00
13422;BME280;6782;55.904;13.396;2023-09-18T09:40:04;100643.69;;;21.09;100.00
13422;BME280;6782;55.904;13.396;2023-09-18T09:42:56;100614.31;;;21.33;100.00
13422;BME280;6782;55.904;13.396;2023-09-18T09:45:47;100582.88;;;21.22;100.00
13422;BME280;6782;55.904;13.396;2023-09-18T09:48:37;100551.41;;;20.99;100.00
13422;BME280;6782;55.904;13.396;2023-09-18T09:51:31;100535.84;;;21.04;100.00
13422;BME280;6782;55.904;13.396;2023-09-18T09:54:32;100522.91;;;21.23;100.00
13422;BME280;6782;55.904;13.396;2023-09-18T09:57:26;100519.88;;;21.40;100.00
13422;BME280;6782;55.904;13.396;2023-09-18T10:00:15;100486.34;;;21.58;100.00
13422;BME280;6782;55.904;13.396;2023-09-18T10:03:15;100467.91;;;21.54;100.00
13422;BME280;6782;55.904;13.396;2023-09-18T10:06:04;100437.91;;;21.60;100.00
13422;BME280;6782;55.904;13.396;2023-09-18T10:08:52;100427.41;;;21.80;100.00
13422;BME280;6782;55.904;13.396;2023-09-18T10:11:48;100394.25;;;21.58;100.00
13422;BME280;6782;55.904;13.396;2023-09-18T10:14:36;100403.50;;;21.77;100.00
13422;BME280;6782;55.904;13.396;2023-09-18T10:17:25;100384.81;;;21.52;100.00
13422;BME280;6782;55.904;13.396;2023-09-18T10:20:16;100385.75;;;21.88;100.00
13422;BME280;6782;55.904;13.396;2023-09-18T10:23:06;100384.81;;;22.00;100.00
13422;BME280;6782;55.904;13.396;2023-09-18T10:25:57;100370.69;;;22.09;100.00
13422;BME280;6782;55.904;13.396;2023-09-18T10:28:51;100351.41;;;22.15;100.00
13422;BME280;6782;55.904;13.396;2023-09-18T10:31:44;100339.72;;;22.38;100.00
13422;BME280;6782;55.904;13.396;2023-09-18T10:34:33;100319.66;;;22.09;100.00
13422;BME280;6782;55.904;13.396;2023-09-18T10:37:22;100306.47;;;22.17;100.00
13422;BME280;6782;55.904;13.396;2023-09-18T10:40:10;100306.75;;;22.58;100.00
13422;BME280;6782;55.904;13.396;2023-09-18T10:43:02;100285.88;;;22.62;100.00
13422;BME280;6782;55.904;13.396;2023-09-18T10:45:52;100277.06;;;22.82;100.00
13422;BME280;6782;55.904;13.396;2023-09-18T10:48:42;100251.78;;;22.51;100.00
13422;BME280;6782;55.904;13.396;2023-09-18T10:51:31;100239.59;;;22.36;100.00
13422;BME280;6782;55.904;13.396;2023-09-18T10:54:21;100229.31;;;22.41;100.00
13422;BME280;6782;55.904;13.396;2023-09-18T10:57:08;100227.84;;;22.59;100.00
13422;BME280;6782;55.904;13.396;2023-09-18T10:59:56;100201.09;;;22.24;100.00
13422;BME280;6782;55.904;13.396;2023-09-18T11:02:46;100195.00;;;22.11;100.00
13422;BME280;6782;55.904;13.396;2023-09-18T11:05:33;100202.34;;;22.31;100.00
13422;BME280;6782;55.904;13.396;2023-09-18T11:08:30;100201.94;;;22.69;100.00
13422;BME280;6782;55.904;13.396;2023-09-18T11:11:19;100189.22;;;22.71;100.00
13422;BME280;6782;55.904;13.396;2023-09-18T11:14:11;100190.09;;;23.03;100.00
13422;BME280;6782;55.904;13.396;2023-09-18T11:16:59;100194.59;;;23.35;100.00
13422;BME280;6782;55.904;13.396;2023-09-18T11:19:48;100150.31;;;22.86;100.00
13422;BME280;6782;55.904;13.396;2023-09-18T11:22:35;100145.97;;;22.74;100.00
13422;BME280;6782;55.904;13.396;2023-09-18T11:25:44;100142.97;;;22.88;100.00
13422;BME280;6782;55.904;13.396;2023-09-18T11:28:33;100139.25;;;23.00;100.00
13422;BME280;6782;55.904;13.396;2023-09-18T11:31:20;100128.03;;;22.95;100.00
13422;BME280;6782;55.904;13.396;2023-09-18T11:34:11;100134.72;;;23.22;100.00
13422;BME280;6782;55.904;13.396;2023-09-18T11:37:01;100123.84;;;23.02;100.00
13422;BME280;6782;55.904;13.396;2023-09-18T11:39:51;100123.66;;;23.15;100.00
13422;BME280;6782;55.904;13.396;2023-09-18T11:42:38;100128.66;;;23.40;100.00
13422;BME280;6782;55.904;13.396;2023-09-18T11:45:26;100113.78;;;23.04;100.00
13422;BME280;6782;55.904;13.396;2023-09-18T11:48:14;100117.81;;;23.31;100.00
13422;BME280;6782;55.904;13.396;2023-09-18T11:51:02;100111.72;;;23.29;100.00
13422;BME280;6782;55.904;13.396;2023-09-18T11:53:57;100113.63;;;23.38;100.00
13422;BME280;6782;55.904;13.396;2023-09-18T11:56:45;100100.66;;;23.32;100.00
13422;BME280;6782;55.904;13.396;2023-09-18T11:59:37;100097.41;;;23.08;100.00
13422;BME280;6782;55.904;13.396;2023-09-18T12:02:25;100101.41;;;22.92;100.00
13422;BME280;6782;55.904;13.396;2023-09-18T12:05:14;100097.00;;;22.91;100.00
13422;BME280;6782;55.904;13.396;2023-09-18T12:08:02;100099.34;;;22.85;100.00
13422;BME280;6782;55.904;13.396;2023-09-18T12:10:51;100095.47;;;22.98;100.00
13422;BME280;6782;55.904;13.396;2023-09-18T12:13:39;100090.63;;;22.92;100.00
13422;BME280;6782;55.904;13.396;2023-09-18T12:16:27;100092.88;;;22.87;100.00
13422;BME280;6782;55.904;13.396;2023-09-18T12:19:16;100093.53;;;23.21;100.00
13422;BME280;6782;55.904;13.396;2023-09-18T12:22:03;100088.88;;;23.02;100.00
13422;BME280;6782;55.904;13.396;2023-09-18T12:24:51;100079.97;;;22.70;100.00
13422;BME280;6782;55.904;13.396;2023-09-18T12:27:40;100091.88;;;22.88;100.00
13422;BME280;6782;55.904;13.396;2023-09-18T12:30:27;100087.56;;;22.97;100.00
13422;BME280;6782;55.904;13.396;2023-09-18T12:33:17;100079.16;;;22.90;100.00
13422;BME280;6782;55.904;13.396;2023-09-18T12:36:07;100068.78;;;22.86;100.00
13422;BME280;6782;55.904;13.396;2023-09-18T12:38:55;100071.66;;;23.15;100.00
13422;BME280;6782;55.904;13.396;2023-09-18T12:41:43;100064.59;;;23.14;100.00
13422;BME280;6782;55.904;13.396;2023-09-18T12:44:33;100057.09;;;23.17;100.00
13422;BME280;6782;55.904;13.396;2023-09-18T12:47:20;100064.00;;;23.31;100.00
13422;BME280;6782;55.904;13.396;2023-09-18T12:50:08;100048.84;;;23.60;100.00
13422;BME280;6782;55.904;13.396;2023-09-18T12:53:06;100043.72;;;23.78;100.00
13422;BME280;6782;55.904;13.396;2023-09-18T12:55:54;100030.53;;;23.94;100.00
13422;BME280;6782;55.904;13.396;2023-09-18T12:58:51;100008.72;;;23.87;100.00
13422;BME280;6782;55.904;13.396;2023-09-18T13:01:40;99993.84;;;23.53;100.00
13422;BME280;6782;55.904;13.396;2023-09-18T13:04:28;99979.97;;;23.48;100.00
13422;BME280;6782;55.904;13.396;2023-09-18T13:07:16;99987.31;;;23.46;100.00
13422;BME280;6782;55.904;13.396;2023-09-18T13:10:06;99979.69;;;23.21;100.00
13422;BME280;6782;55.904;13.396;2023-09-18T13:12:55;99978.41;;;23.25;100.00
13422;BME280;6782;55.904;13.396;2023-09-18T13:15:45;99972.13;;;23.15;100.00
13422;BME280;6782;55.904;13.396;2023-09-18T13:18:35;99956.19;;;22.92;100.00
13422;BME280;6782;55.904;13.396;2023-09-18T13:21:22;99966.13;;;23.01;100.00
13422;BME280;6782;55.904;13.396;2023-09-18T13:24:24;99964.81;;;22.75;100.00
13422;BME280;6782;55.904;13.396;2023-09-18T13:27:11;99968.97;;;23.00;100.00
13422;BME280;6782;55.904;13.396;2023-09-18T13:29:58;99967.19;;;22.89;100.00
13422;BME280;6782;55.904;13.396;2023-09-18T13:33:01;99968.22;;;23.19;100.00
13422;BME280;6782;55.904;13.396;2023-09-18T13:35:50;99944.88;;;22.98;100.00
13422;BME280;6782;55.904;13.396;2023-09-18T13:38:38;99948.00;;;23.03;100.00
13422;BME280;6782;55.904;13.396;2023-09-18T13:41:26;99950.19;;;23.40;100.00
13422;BME280;6782;55.904;13.396;2023-09-18T13:44:13;99937.34;;;23.53;100.00
13422;BME280;6782;55.904;13.396;2023-09-18T13:47:01;99937.25;;;23.83;100.00
13422;BME280;6782;55.904;13.396;2023-09-18T13:49:49;99923.66;;;23.85;100.00
13422;BME280;6782;55.904;13.396;2023-09-18T13:52:38;99906.91;;;23.72;100.00
13422;BME280;6782;55.904;13.396;2023-09-18T13:55:25;99892.16;;;23.47;100.00
13422;BME280;6782;55.904;13.396;2023-09-18T13:58:13;99894.00;;;23.56;100.00
13422;BME280;6782;55.904;13.396;2023-09-18T14:01:00;99882.09;;;23.49;100.00
13422;BME280;6782;55.904;13.396;2023-09-18T14:03:47;99877.66;;;23.38;100.00
13422;BME280;6782;55.904;13.396;2023-09-18T14:06:34;99868.75;;;23.38;100.00
13422;BME280;6782;55.904;13.396;2023-09-18T14:09:23;99872.03;;;23.51;100.00
13422;BME280;6782;55.904;13.396;2023-09-18T14:12:10;99883.66;;;23.51;100.00
13422;BME280;6782;55.904;13.396;2023-09-18T14:14:57;99878.53;;;23.48;100.00
13422;BME280;6782;55.904;13.396;2023-09-18T14:17:45;99882.53;;;23.54;100.00
13422;BME280;6782;55.904;13.396;2023-09-18T14:20:32;99888.19;;;23.51;100.00
13422;BME280;6782;55.904;13.396;2023-09-18T14:23:19;99882.59;;;23.33;100.00
13422;BME280;6782;55.904;13.396;2023-09-18T14:26:08;99895.28;;;23.61;100.00
13422;BME280;6782;55.904;13.396;2023-09-18T14:28:56;99874.72;;;23.41;100.00
13422;BME280;6782;55.904;13.396;2023-09-18T14:31:43;99868.19;;;23.44;100.00
13422;BME280;6782;55.904;13.396;2023-09-18T14:34:30;99853.66;;;23.16;100.00
13422;BME280;6782;55.904;13.396;2023-09-18T14:37:17;99859.69;;;23.08;100.00
13422;BME280;6782;55.904;13.396;2023-09-18T14:40:05;99852.84;;;22.85;100.00
13422;BME280;6782;55.904;13.396;2023-09-18T14:42:59;99865.09;;;22.78;100.00
13422;BME280;6782;55.904;13.396;2023-09-18T14:45:46;99860.31;;;22.61;100.00
13422;BME280;6782;55.904;13.396;2023-09-18T14:48:33;99862.28;;;22.59;100.00
13422;BME280;6782;55.904;13.396;2023-09-18T14:51:20;99853.44;;;22.48;100.00
13422;BME280;6782;55.904;13.396;2023-09-18T14:54:07;99879.19;;;22.50;100.00
13422;BME280;6782;55.904;13.396;2023-09-18T14:56:54;99873.97;;;22.28;100.00
13422;BME280;6782;55.904;13.396;2023-09-18T14:59:43;99891.25;;;22.35;100.00